• Join FlightAware (Why Join?)
  • Login
  • US Flag 
10:11PM EST


 

Airport Tracker/Info


-or-


 

Live Flight TrackerFlight Track Log ✈ AAR8734 ✈ 26-Aug-2013 ✈ RKJY / RSU - RKSS / GMP

Flight Track Log - Related Links

Times and Time Zones

All times are in EDT time to prevent confusion due to time zone crossing. See the AAR8734 flight status page for this flight to view local times or setup timezone preferences in your user account.

Time Position Orientation Groundspeed Altitude Reporting Facility
EDT Latitude Longitude Course Direction KTS MPH feet Rate Location/Type
10:33PM 35.7218 127.3541 346° North  Level Estimated
10:34PM 35.8020 127.3301 346° North  Level Estimated
10:35PM 35.8821 127.3060 346° North  Level Estimated
10:36PM 35.9623 127.2819 346° North  Level Estimated
10:37PM 36.0424 127.2577 346° North  Level Estimated
10:38PM 36.1226 127.2335 346° North  Level Estimated
10:39PM 36.2027 127.2092 346° North  Level Estimated
10:40PM 36.2828 127.1849 346° North  Level Estimated
10:41PM 36.3629 127.1605 346° North  Level Estimated
10:42PM 36.4431 127.1361 346° North  Level Estimated
10:43PM 36.5232 127.1116 346° North  Level Estimated
10:44PM 36.6033 127.0871 346° North  Level Estimated
10:45PM 36.6834 127.0625 346° North  Level Estimated
10:46PM 36.7635 127.0379 346° North  Level Estimated
10:47PM 36.8436 127.0132 346° North  Level Estimated
10:48PM 36.9237 126.9885 346° North  Level Estimated
10:49PM 37.0037 126.9637 346° North  Level Estimated
10:50PM 37.0838 126.9389 346° North  Level Estimated
10:51PM 37.1639 126.9140 346° North  Level Estimated
10:52PM 37.2440 126.8890 346° North  Level Estimated
10:53PM 37.3240 126.8640 346° North  Level Estimated
10:54PM 37.4041 126.8390 346° North  Level Estimated
10:55PM 37.4841 126.8139 346° North  Level Estimated
10:56PM 37.5583 126.7906 346° North  Level Estimated
10:57PM 37.5583 126.7906 288° West  Level Estimated
10:58PM 37.5583 126.7906 288° West  Level Estimated
10:59PM 37.5583 126.7906 288° West  Level Estimated
11:00PM 37.5583 126.7906 288° West  Level Estimated
11:01PM 37.5583 126.7906 288° West  Level Estimated
11:02PM 37.5583 126.7906 288° West  Level Estimated
11:03PM 37.5583 126.7906 288° West  Level Estimated
11:04PM 37.5583 126.7906 288° West  Level Estimated
11:05PM 37.5583 126.7906 288° West  Level Estimated
11:06PM 37.5583 126.7906 288° West  Level Estimated
11:07PM 37.5583 126.7906 288° West  Level Estimated
11:08PM 37.5583 126.7906 288° West  Level Estimated
11:09PM 37.5583 126.7906 288° West  Level Estimated
11:10PM 37.5583 126.7906 288° West  Level Estimated
11:11PM 37.5583 126.7906 288° West  Level Estimated
11:12PM 37.5583 126.7906 288° West  Level Estimated